Downsview Airport

METAR CYYZ TAF CYYZ
4 °C
°C
-
°C
1h
Âge
04:01:43
LT
03:01
UTC
0 ft

1.000

2.000

3.000

4.000

5.000

BKN 2.300
BKN 4.800
MVFR
<?= Yii::t('app', 'Wind direction') ?> <?= Yii::t('app', 'of'); ?>
270°
07:26
Lever du soleil
93%
Humidité
Cisaillement du vent
Fermé/neige
Portée visuelle RWY
Condition RWY
Visibilité vert.
Visibilité min.
CAVOK
Tendance
Correction
Rapport spécial
30,00 inHg
QNH
METAR CYYZ 080200Z 27014KT 15SM BKN023 BKN048 04/03 A3000 RMK SC6SC1 SLP166
Fragmenté
11 kt
11 kt
22:00
MVFR
15 kt
23:00
MVFR
12 kt
00:00
MVFR
12 kt
01:00
MVFR
12 kt
02:00
MVFR
12 kt
03:00
MVFR
12 kt
04:00
MVFR
12 kt
15 mi
Vue
2.300 ft
Base cloud
14 kt
Vent
metar-taf.com/CYZD

Metar-Taf.com

Décodeur visuel

Nous et des tiers suivons ton comportement Internet sur notre site Web à l'aide de cookies. Si tu continues, nous supposons que tu es d'accord avec notre Politique en matière de cookies.